sensor_id;sensor_type;location;lat;lon;timestamp;temperature;humidity
29031;DHT22;16122;50.236;11.734;2023-02-11T00:00:31;15.80;46.60
29031;DHT22;16122;50.236;11.734;2023-02-11T00:02:57;15.80;46.60
29031;DHT22;16122;50.236;11.734;2023-02-11T00:05:23;15.80;46.50
29031;DHT22;16122;50.236;11.734;2023-02-11T00:07:49;15.80;46.50
29031;DHT22;16122;50.236;11.734;2023-02-11T00:10:15;15.80;46.50
29031;DHT22;16122;50.236;11.734;2023-02-11T00:12:40;15.80;46.40
29031;DHT22;16122;50.236;11.734;2023-02-11T00:15:08;15.80;46.50
29031;DHT22;16122;50.236;11.734;2023-02-11T00:17:34;15.80;46.40
29031;DHT22;16122;50.236;11.734;2023-02-11T00:20:00;15.80;46.40
29031;DHT22;16122;50.236;11.734;2023-02-11T00:22:26;15.80;46.40
29031;DHT22;16122;50.236;11.734;2023-02-11T00:24:52;15.80;46.30
29031;DHT22;16122;50.236;11.734;2023-02-11T00:27:18;15.80;46.30
29031;DHT22;16122;50.236;11.734;2023-02-11T00:29:44;15.80;46.20
29031;DHT22;16122;50.236;11.734;2023-02-11T00:32:10;15.80;46.20
29031;DHT22;16122;50.236;11.734;2023-02-11T00:34:36;15.80;46.20
29031;DHT22;16122;50.236;11.734;2023-02-11T00:37:03;15.80;46.20
29031;DHT22;16122;50.236;11.734;2023-02-11T00:39:29;15.80;46.20
29031;DHT22;16122;50.236;11.734;2023-02-11T00:41:55;15.80;46.20
29031;DHT22;16122;50.236;11.734;2023-02-11T00:44:21;15.80;46.20
29031;DHT22;16122;50.236;11.734;2023-02-11T00:46:47;15.80;46.20
29031;DHT22;16122;50.236;11.734;2023-02-11T00:49:13;15.80;46.10
29031;DHT22;16122;50.236;11.734;2023-02-11T00:51:40;15.80;46.20
29031;DHT22;16122;50.236;11.734;2023-02-11T00:54:06;15.80;46.00
29031;DHT22;16122;50.236;11.734;2023-02-11T00:56:35;15.80;46.00
29031;DHT22;16122;50.236;11.734;2023-02-11T00:59:00;15.80;46.00
29031;DHT22;16122;50.236;11.734;2023-02-11T01:01:26;15.80;46.00
29031;DHT22;16122;50.236;11.734;2023-02-11T01:03:52;15.80;46.50
29031;DHT22;16122;50.236;11.734;2023-02-11T01:06:18;15.80;45.90
29031;DHT22;16122;50.236;11.734;2023-02-11T01:08:44;15.80;45.90
29031;DHT22;16122;50.236;11.734;2023-02-11T01:11:16;15.80;45.90
29031;DHT22;16122;50.236;11.734;2023-02-11T01:13:44;15.80;45.90
29031;DHT22;16122;50.236;11.734;2023-02-11T01:16:10;15.80;46.10
29031;DHT22;16122;50.236;11.734;2023-02-11T01:18:37;15.70;45.80
29031;DHT22;16122;50.236;11.734;2023-02-11T01:21:04;15.80;45.90
29031;DHT22;16122;50.236;11.734;2023-02-11T01:23:30;15.70;45.80
29031;DHT22;16122;50.236;11.734;2023-02-11T01:25:56;15.70;45.70
29031;DHT22;16122;50.236;11.734;2023-02-11T01:28:24;15.80;45.70
29031;DHT22;16122;50.236;11.734;2023-02-11T01:30:51;15.80;45.70
29031;DHT22;16122;50.236;11.734;2023-02-11T01:33:17;15.80;45.70
29031;DHT22;16122;50.236;11.734;2023-02-11T01:35:43;15.70;45.50
29031;DHT22;16122;50.236;11.734;2023-02-11T01:38:30;15.80;45.60
29031;DHT22;16122;50.236;11.734;2023-02-11T01:40:59;15.80;45.60
29031;DHT22;16122;50.236;11.734;2023-02-11T01:43:33;15.80;45.60
29031;DHT22;16122;50.236;11.734;2023-02-11T01:46:23;15.80;45.60
29031;DHT22;16122;50.236;11.734;2023-02-11T01:51:54;15.70;45.40
29031;DHT22;16122;50.236;11.734;2023-02-11T01:54:25;15.70;45.30
29031;DHT22;16122;50.236;11.734;2023-02-11T01:57:15;15.80;45.40
29031;DHT22;16122;50.236;11.734;2023-02-11T02:02:20;15.80;45.30
29031;DHT22;16122;50.236;11.734;2023-02-11T02:10:25;15.80;45.30
29031;DHT22;16122;50.236;11.734;2023-02-11T02:12:52;15.80;45.10
29031;DHT22;16122;50.236;11.734;2023-02-11T02:17:56;15.80;45.10
29031;DHT22;16122;50.236;11.734;2023-02-11T02:40:58;15.80;45.00
29031;DHT22;16122;50.236;11.734;2023-02-11T02:43:26;15.80;45.00
29031;DHT22;16122;50.236;11.734;2023-02-11T02:45:53;15.80;45.10
29031;DHT22;16122;50.236;11.734;2023-02-11T02:48:27;15.80;45.00
29031;DHT22;16122;50.236;11.734;2023-02-11T02:56:29;15.80;44.80
29031;DHT22;16122;50.236;11.734;2023-02-11T03:10:18;15.80;44.80
29031;DHT22;16122;50.236;11.734;2023-02-11T03:12:47;15.80;44.80
29031;DHT22;16122;50.236;11.734;2023-02-11T03:15:14;15.80;44.80
29031;DHT22;16122;50.236;11.734;2023-02-11T03:17:46;15.80;44.80
29031;DHT22;16122;50.236;11.734;2023-02-11T03:20:14;15.80;44.80
29031;DHT22;16122;50.236;11.734;2023-02-11T03:22:56;15.80;44.80
29031;DHT22;16122;50.236;11.734;2023-02-11T03:25:29;15.80;44.80
29031;DHT22;16122;50.236;11.734;2023-02-11T03:27:57;15.80;44.70
29031;DHT22;16122;50.236;11.734;2023-02-11T03:33:49;15.80;44.80
29031;DHT22;16122;50.236;11.734;2023-02-11T03:36:16;15.80;44.70
29031;DHT22;16122;50.236;11.734;2023-02-11T03:38:47;15.80;44.70
29031;DHT22;16122;50.236;11.734;2023-02-11T03:41:18;15.80;44.70
29031;DHT22;16122;50.236;11.734;2023-02-11T03:43:50;15.80;44.80
29031;DHT22;16122;50.236;11.734;2023-02-11T03:46:20;15.80;44.80
29031;DHT22;16122;50.236;11.734;2023-02-11T03:48:54;15.80;44.80
29031;DHT22;16122;50.236;11.734;2023-02-11T03:51:23;15.80;44.80
29031;DHT22;16122;50.236;11.734;2023-02-11T03:53:52;15.80;44.80
29031;DHT22;16122;50.236;11.734;2023-02-11T03:56:22;15.80;44.80
29031;DHT22;16122;50.236;11.734;2023-02-11T03:58:49;15.80;44.90
29031;DHT22;16122;50.236;11.734;2023-02-11T04:01:15;15.80;44.90
29031;DHT22;16122;50.236;11.734;2023-02-11T04:03:41;15.80;44.90
29031;DHT22;16122;50.236;11.734;2023-02-11T04:06:07;15.80;44.90
29031;DHT22;16122;50.236;11.734;2023-02-11T04:08:34;15.70;44.80
29031;DHT22;16122;50.236;11.734;2023-02-11T04:10:59;15.70;44.80
29031;DHT22;16122;50.236;11.734;2023-02-11T04:13:25;15.70;44.70
29031;DHT22;16122;50.236;11.734;2023-02-11T04:15:51;15.70;44.70
29031;DHT22;16122;50.236;11.734;2023-02-11T04:18:17;15.70;45.30
29031;DHT22;16122;50.236;11.734;2023-02-11T04:20:43;15.70;44.70
29031;DHT22;16122;50.236;11.734;2023-02-11T04:23:09;15.70;44.80
29031;DHT22;16122;50.236;11.734;2023-02-11T04:25:35;15.70;44.80
29031;DHT22;16122;50.236;11.734;2023-02-11T04:28:01;15.70;44.80
29031;DHT22;16122;50.236;11.734;2023-02-11T04:30:26;15.70;44.80
29031;DHT22;16122;50.236;11.734;2023-02-11T04:32:52;15.70;44.80
29031;DHT22;16122;50.236;11.734;2023-02-11T04:35:19;15.70;44.70
29031;DHT22;16122;50.236;11.734;2023-02-11T04:37:45;15.70;44.70
29031;DHT22;16122;50.236;11.734;2023-02-11T04:40:11;15.70;44.80
29031;DHT22;16122;50.236;11.734;2023-02-11T04:42:37;15.70;44.80
29031;DHT22;16122;50.236;11.734;2023-02-11T04:45:03;15.70;44.70
29031;DHT22;16122;50.236;11.734;2023-02-11T04:47:29;15.70;44.70
29031;DHT22;16122;50.236;11.734;2023-02-11T04:49:55;15.70;44.70
29031;DHT22;16122;50.236;11.734;2023-02-11T04:52:21;15.70;44.70
29031;DHT22;16122;50.236;11.734;2023-02-11T04:54:47;15.70;44.60
29031;DHT22;16122;50.236;11.734;2023-02-11T04:57:13;15.70;44.40
29031;DHT22;16122;50.236;11.734;2023-02-11T04:59:38;15.70;44.60
29031;DHT22;16122;50.236;11.734;2023-02-11T05:02:05;15.70;44.60
29031;DHT22;16122;50.236;11.734;2023-02-11T05:04:31;15.70;44.70
29031;DHT22;16122;50.236;11.734;2023-02-11T05:06:56;15.70;44.70
29031;DHT22;16122;50.236;11.734;2023-02-11T05:09:22;15.70;44.70
29031;DHT22;16122;50.236;11.734;2023-02-11T05:11:48;15.70;44.60
29031;DHT22;16122;50.236;11.734;2023-02-11T05:14:14;15.70;44.60
29031;DHT22;16122;50.236;11.734;2023-02-11T05:16:40;15.70;44.60
29031;DHT22;16122;50.236;11.734;2023-02-11T05:19:05;15.70;44.70
29031;DHT22;16122;50.236;11.734;2023-02-11T05:21:31;15.70;44.60
29031;DHT22;16122;50.236;11.734;2023-02-11T05:23:57;15.70;44.60
29031;DHT22;16122;50.236;11.734;2023-02-11T05:26:23;15.70;44.60
29031;DHT22;16122;50.236;11.734;2023-02-11T05:28:49;15.70;44.60
29031;DHT22;16122;50.236;11.734;2023-02-11T05:31:15;15.70;44.70
29031;DHT22;16122;50.236;11.734;2023-02-11T05:33:41;15.70;44.70
29031;DHT22;16122;50.236;11.734;2023-02-11T05:36:10;15.70;44.70
29031;DHT22;16122;50.236;11.734;2023-02-11T05:38:36;15.70;44.80
29031;DHT22;16122;50.236;11.734;2023-02-11T05:41:03;15.70;44.90
29031;DHT22;16122;50.236;11.734;2023-02-11T05:43:29;15.70;45.00
29031;DHT22;16122;50.236;11.734;2023-02-11T05:45:55;15.70;45.00
29031;DHT22;16122;50.236;11.734;2023-02-11T05:48:21;15.70;45.00
29031;DHT22;16122;50.236;11.734;2023-02-11T05:50:47;15.70;45.00
29031;DHT22;16122;50.236;11.734;2023-02-11T05:53:13;15.70;45.00
29031;DHT22;16122;50.236;11.734;2023-02-11T05:55:39;15.70;45.00
29031;DHT22;16122;50.236;11.734;2023-02-11T05:58:06;15.70;45.00
29031;DHT22;16122;50.236;11.734;2023-02-11T06:00:33;15.70;45.10
29031;DHT22;16122;50.236;11.734;2023-02-11T06:02:58;15.70;45.10
29031;DHT22;16122;50.236;11.734;2023-02-11T06:05:24;15.70;45.00
29031;DHT22;16122;50.236;11.734;2023-02-11T06:07:50;15.70;45.10
29031;DHT22;16122;50.236;11.734;2023-02-11T06:10:16;15.70;45.20
29031;DHT22;16122;50.236;11.734;2023-02-11T06:12:42;15.70;45.20
29031;DHT22;16122;50.236;11.734;2023-02-11T06:15:09;15.70;45.20
29031;DHT22;16122;50.236;11.734;2023-02-11T06:17:35;15.70;45.80
29031;DHT22;16122;50.236;11.734;2023-02-11T06:20:03;15.70;45.20
29031;DHT22;16122;50.236;11.734;2023-02-11T06:22:30;15.70;45.20
29031;DHT22;16122;50.236;11.734;2023-02-11T06:24:56;15.70;45.20
29031;DHT22;16122;50.236;11.734;2023-02-11T06:27:22;15.70;45.30
29031;DHT22;16122;50.236;11.734;2023-02-11T06:29:48;15.70;45.40
29031;DHT22;16122;50.236;11.734;2023-02-11T06:32:14;15.70;45.40
29031;DHT22;16122;50.236;11.734;2023-02-11T06:34:40;15.70;45.60
29031;DHT22;16122;50.236;11.734;2023-02-11T06:37:06;15.80;45.70
29031;DHT22;16122;50.236;11.734;2023-02-11T06:39:31;15.80;45.80
29031;DHT22;16122;50.236;11.734;2023-02-11T06:41:57;15.70;45.90
29031;DHT22;16122;50.236;11.734;2023-02-11T06:44:23;15.80;46.10
29031;DHT22;16122;50.236;11.734;2023-02-11T06:46:49;15.80;46.20
29031;DHT22;16122;50.236;11.734;2023-02-11T06:49:14;15.80;46.40
29031;DHT22;16122;50.236;11.734;2023-02-11T06:51:40;15.80;46.60
29031;DHT22;16122;50.236;11.734;2023-02-11T06:54:06;15.80;46.70
29031;DHT22;16122;50.236;11.734;2023-02-11T06:56:33;15.80;46.70
29031;DHT22;16122;50.236;11.734;2023-02-11T06:58:59;15.80;46.80
29031;DHT22;16122;50.236;11.734;2023-02-11T07:01:25;15.80;46.90
29031;DHT22;16122;50.236;11.734;2023-02-11T07:03:52;15.80;47.10
29031;DHT22;16122;50.236;11.734;2023-02-11T07:06:20;15.80;47.20
29031;DHT22;16122;50.236;11.734;2023-02-11T07:08:47;15.80;47.30
29031;DHT22;16122;50.236;11.734;2023-02-11T07:11:14;15.80;47.40
29031;DHT22;16122;50.236;11.734;2023-02-11T07:13:40;15.80;47.50
29031;DHT22;16122;50.236;11.734;2023-02-11T07:16:08;15.80;47.50
29031;DHT22;16122;50.236;11.734;2023-02-11T07:18:34;15.80;47.60
29031;DHT22;16122;50.236;11.734;2023-02-11T07:21:04;15.70;47.50
29031;DHT22;16122;50.236;11.734;2023-02-11T07:23:30;15.80;47.60
29031;DHT22;16122;50.236;11.734;2023-02-11T07:25:56;15.80;47.70
29031;DHT22;16122;50.236;11.734;2023-02-11T07:28:22;15.80;47.70
29031;DHT22;16122;50.236;11.734;2023-02-11T07:30:47;15.80;47.70
29031;DHT22;16122;50.236;11.734;2023-02-11T07:33:13;15.80;47.80
29031;DHT22;16122;50.236;11.734;2023-02-11T07:35:39;15.80;47.90
29031;DHT22;16122;50.236;11.734;2023-02-11T07:38:05;15.80;47.90
29031;DHT22;16122;50.236;11.734;2023-02-11T07:40:30;15.80;47.90
29031;DHT22;16122;50.236;11.734;2023-02-11T07:42:56;15.80;47.80
29031;DHT22;16122;50.236;11.734;2023-02-11T07:45:22;15.80;47.60
29031;DHT22;16122;50.236;11.734;2023-02-11T07:47:49;15.90;47.70
29031;DHT22;16122;50.236;11.734;2023-02-11T07:50:16;15.90;47.80
29031;DHT22;16122;50.236;11.734;2023-02-11T07:52:42;15.90;47.70
29031;DHT22;16122;50.236;11.734;2023-02-11T07:55:08;15.90;47.70
29031;DHT22;16122;50.236;11.734;2023-02-11T07:57:35;15.90;47.80
29031;DHT22;16122;50.236;11.734;2023-02-11T08:00:01;15.90;47.80
29031;DHT22;16122;50.236;11.734;2023-02-11T08:02:36;15.90;47.90
29031;DHT22;16122;50.236;11.734;2023-02-11T08:05:02;15.90;48.20
29031;DHT22;16122;50.236;11.734;2023-02-11T08:07:27;15.90;48.20
29031;DHT22;16122;50.236;11.734;2023-02-11T08:09:54;15.90;48.20
29031;DHT22;16122;50.236;11.734;2023-02-11T08:12:20;15.90;48.70
29031;DHT22;16122;50.236;11.734;2023-02-11T08:14:46;15.90;48.40
29031;DHT22;16122;50.236;11.734;2023-02-11T08:17:11;15.90;48.60
29031;DHT22;16122;50.236;11.734;2023-02-11T08:19:38;15.90;48.70
29031;DHT22;16122;50.236;11.734;2023-02-11T08:22:03;15.90;48.70
29031;DHT22;16122;50.236;11.734;2023-02-11T08:24:29;15.90;48.60
29031;DHT22;16122;50.236;11.734;2023-02-11T08:26:55;15.90;48.80
29031;DHT22;16122;50.236;11.734;2023-02-11T08:29:21;15.90;48.70
29031;DHT22;16122;50.236;11.734;2023-02-11T08:31:47;15.90;48.70
29031;DHT22;16122;50.236;11.734;2023-02-11T08:34:14;16.00;48.80
29031;DHT22;16122;50.236;11.734;2023-02-11T08:36:42;16.00;48.80
29031;DHT22;16122;50.236;11.734;2023-02-11T08:39:20;15.90;48.60
29031;DHT22;16122;50.236;11.734;2023-02-11T08:41:48;16.00;48.70
29031;DHT22;16122;50.236;11.734;2023-02-11T08:44:15;15.90;48.60
29031;DHT22;16122;50.236;11.734;2023-02-11T08:46:41;16.00;48.60
29031;DHT22;16122;50.236;11.734;2023-02-11T08:49:07;16.00;48.60
29031;DHT22;16122;50.236;11.734;2023-02-11T08:51:33;16.00;48.60
29031;DHT22;16122;50.236;11.734;2023-02-11T08:54:00;15.90;48.60
29031;DHT22;16122;50.236;11.734;2023-02-11T08:56:27;15.90;48.70
29031;DHT22;16122;50.236;11.734;2023-02-11T08:58:53;15.90;48.60
29031;DHT22;16122;50.236;11.734;2023-02-11T09:01:25;16.00;48.60
29031;DHT22;16122;50.236;11.734;2023-02-11T09:03:51;16.00;48.80
29031;DHT22;16122;50.236;11.734;2023-02-11T09:06:18;16.00;48.80
29031;DHT22;16122;50.236;11.734;2023-02-11T09:08:46;16.00;48.80
29031;DHT22;16122;50.236;11.734;2023-02-11T09:11:17;16.00;48.80
29031;DHT22;16122;50.236;11.734;2023-02-11T09:13:43;16.00;48.80
29031;DHT22;16122;50.236;11.734;2023-02-11T09:16:17;16.00;48.90
29031;DHT22;16122;50.236;11.734;2023-02-11T09:18:43;16.00;48.80
29031;DHT22;16122;50.236;11.734;2023-02-11T09:21:10;16.00;48.70
29031;DHT22;16122;50.236;11.734;2023-02-11T09:23:36;16.00;48.70
29031;DHT22;16122;50.236;11.734;2023-02-11T09:26:06;16.00;48.60
29031;DHT22;16122;50.236;11.734;2023-02-11T09:28:32;16.00;48.60
29031;DHT22;16122;50.236;11.734;2023-02-11T09:30:58;16.00;48.50
29031;DHT22;16122;50.236;11.734;2023-02-11T09:33:29;16.00;48.50
29031;DHT22;16122;50.236;11.734;2023-02-11T09:35:55;16.00;48.40
29031;DHT22;16122;50.236;11.734;2023-02-11T09:38:24;16.00;48.30
29031;DHT22;16122;50.236;11.734;2023-02-11T09:40:50;16.00;48.30
29031;DHT22;16122;50.236;11.734;2023-02-11T09:43:26;15.90;48.20
29031;DHT22;16122;50.236;11.734;2023-02-11T09:45:56;15.90;48.20
29031;DHT22;16122;50.236;11.734;2023-02-11T09:48:22;15.90;48.10
29031;DHT22;16122;50.236;11.734;2023-02-11T09:53:23;15.90;48.00
29031;DHT22;16122;50.236;11.734;2023-02-11T09:55:56;15.90;47.90
29031;DHT22;16122;50.236;11.734;2023-02-11T09:58:34;16.00;47.90
29031;DHT22;16122;50.236;11.734;2023-02-11T10:01:06;16.00;47.90
29031;DHT22;16122;50.236;11.734;2023-02-11T10:06:39;15.90;48.20
29031;DHT22;16122;50.236;11.734;2023-02-11T10:11:40;15.90;48.30
29031;DHT22;16122;50.236;11.734;2023-02-11T10:20:04;16.00;48.30
29031;DHT22;16122;50.236;11.734;2023-02-11T10:22:35;15.90;48.30
29031;DHT22;16122;50.236;11.734;2023-02-11T10:27:47;16.00;48.30
29031;DHT22;16122;50.236;11.734;2023-02-11T10:33:19;16.00;48.20
29031;DHT22;16122;50.236;11.734;2023-02-11T10:35:47;16.00;48.30
29031;DHT22;16122;50.236;11.734;2023-02-11T10:38:13;16.00;48.30
29031;DHT22;16122;50.236;11.734;2023-02-11T10:40:39;16.00;48.30
29031;DHT22;16122;50.236;11.734;2023-02-11T10:43:10;16.00;48.30
29031;DHT22;16122;50.236;11.734;2023-02-11T10:45:47;16.00;48.80
29031;DHT22;16122;50.236;11.734;2023-02-11T10:51:32;16.00;48.10
29031;DHT22;16122;50.236;11.734;2023-02-11T10:56:47;16.00;48.10
29031;DHT22;16122;50.236;11.734;2023-02-11T10:59:33;16.00;48.30
29031;DHT22;16122;50.236;11.734;2023-02-11T11:02:27;16.00;48.50
29031;DHT22;16122;50.236;11.734;2023-02-11T11:05:03;16.00;48.70
29031;DHT22;16122;50.236;11.734;2023-02-11T11:07:32;16.00;48.70
29031;DHT22;16122;50.236;11.734;2023-02-11T11:10:10;16.00;48.90
29031;DHT22;16122;50.236;11.734;2023-02-11T11:12:49;16.00;48.80
29031;DHT22;16122;50.236;11.734;2023-02-11T11:15:19;16.00;48.80
29031;DHT22;16122;50.236;11.734;2023-02-11T11:17:50;16.00;48.70
29031;DHT22;16122;50.236;11.734;2023-02-11T11:20:21;16.00;48.70
29031;DHT22;16122;50.236;11.734;2023-02-11T11:22:49;16.00;48.60
29031;DHT22;16122;50.236;11.734;2023-02-11T11:25:25;16.00;48.50
29031;DHT22;16122;50.236;11.734;2023-02-11T11:27:57;16.00;48.80
29031;DHT22;16122;50.236;11.734;2023-02-11T11:30:32;16.00;48.80
29031;DHT22;16122;50.236;11.734;2023-02-11T11:33:03;16.00;48.90
29031;DHT22;16122;50.236;11.734;2023-02-11T11:35:30;16.00;49.10
29031;DHT22;16122;50.236;11.734;2023-02-11T11:38:00;16.00;49.10
29031;DHT22;16122;50.236;11.734;2023-02-11T11:40:28;16.00;49.20
29031;DHT22;16122;50.236;11.734;2023-02-11T11:43:14;16.00;49.20
29031;DHT22;16122;50.236;11.734;2023-02-11T11:45:56;16.00;49.30
29031;DHT22;16122;50.236;11.734;2023-02-11T11:48:27;16.00;49.30
29031;DHT22;16122;50.236;11.734;2023-02-11T11:51:07;16.00;49.40
29031;DHT22;16122;50.236;11.734;2023-02-11T11:54:05;16.00;49.60
29031;DHT22;16122;50.236;11.734;2023-02-11T11:56:35;16.00;49.70
29031;DHT22;16122;50.236;11.734;2023-02-11T11:59:12;16.00;49.90
29031;DHT22;16122;50.236;11.734;2023-02-11T12:10:26;15.90;49.70
29031;DHT22;16122;50.236;11.734;2023-02-11T12:18:23;15.90;49.80
29031;DHT22;16122;50.236;11.734;2023-02-11T12:26:21;15.90;50.30
29031;DHT22;16122;50.236;11.734;2023-02-11T12:34:38;15.90;50.70
29031;DHT22;16122;50.236;11.734;2023-02-11T12:42:36;15.90;50.90
29031;DHT22;16122;50.236;11.734;2023-02-11T12:51:06;15.90;51.00
29031;DHT22;16122;50.236;11.734;2023-02-11T13:01:51;15.80;50.80
29031;DHT22;16122;50.236;11.734;2023-02-11T13:04:25;15.80;51.00
29031;DHT22;16122;50.236;11.734;2023-02-11T13:06:58;15.80;51.10
29031;DHT22;16122;50.236;11.734;2023-02-11T13:09:34;15.80;51.10
29031;DHT22;16122;50.236;11.734;2023-02-11T13:12:05;15.80;51.10
29031;DHT22;16122;50.236;11.734;2023-02-11T13:14:51;15.80;51.10
29031;DHT22;16122;50.236;11.734;2023-02-11T13:17:40;15.80;51.20
29031;DHT22;16122;50.236;11.734;2023-02-11T13:20:42;15.80;51.20
29031;DHT22;16122;50.236;11.734;2023-02-11T13:23:17;15.80;51.30
29031;DHT22;16122;50.236;11.734;2023-02-11T13:25:50;15.80;51.20
29031;DHT22;16122;50.236;11.734;2023-02-11T13:28:49;15.80;51.30
29031;DHT22;16122;50.236;11.734;2023-02-11T13:31:17;15.80;51.30
29031;DHT22;16122;50.236;11.734;2023-02-11T13:33:45;15.80;51.30
29031;DHT22;16122;50.236;11.734;2023-02-11T13:36:22;15.80;51.30
29031;DHT22;16122;50.236;11.734;2023-02-11T13:39:00;15.80;51.30
29031;DHT22;16122;50.236;11.734;2023-02-11T13:41:30;15.80;51.10
29031;DHT22;16122;50.236;11.734;2023-02-11T13:44:22;15.80;51.40
29031;DHT22;16122;50.236;11.734;2023-02-11T13:46:56;15.80;51.00
29031;DHT22;16122;50.236;11.734;2023-02-11T13:51:57;15.70;50.90
29031;DHT22;16122;50.236;11.734;2023-02-11T13:54:45;15.70;50.90
29031;DHT22;16122;50.236;11.734;2023-02-11T13:59:56;15.70;51.00
29031;DHT22;16122;50.236;11.734;2023-02-11T14:02:35;15.70;51.00
29031;DHT22;16122;50.236;11.734;2023-02-11T14:05:32;15.70;51.00
29031;DHT22;16122;50.236;11.734;2023-02-11T14:08:22;15.70;51.00
29031;DHT22;16122;50.236;11.734;2023-02-11T14:11:46;15.70;51.00
29031;DHT22;16122;50.236;11.734;2023-02-11T14:19:40;15.70;50.90
29031;DHT22;16122;50.236;11.734;2023-02-11T14:24:43;15.70;51.20
29031;DHT22;16122;50.236;11.734;2023-02-11T14:27:35;15.70;51.30
29031;DHT22;16122;50.236;11.734;2023-02-11T14:36:09;15.70;51.30
29031;DHT22;16122;50.236;11.734;2023-02-11T14:41:48;15.70;51.50
29031;DHT22;16122;50.236;11.734;2023-02-11T14:44:19;15.70;51.50
29031;DHT22;16122;50.236;11.734;2023-02-11T14:46:48;15.70;51.50
29031;DHT22;16122;50.236;11.734;2023-02-11T14:49:37;15.70;51.40
29031;DHT22;16122;50.236;11.734;2023-02-11T14:52:31;15.70;51.60
29031;DHT22;16122;50.236;11.734;2023-02-11T14:55:26;15.70;51.50
29031;DHT22;16122;50.236;11.734;2023-02-11T14:58:28;15.70;51.50
29031;DHT22;16122;50.236;11.734;2023-02-11T15:01:04;15.60;51.40
29031;DHT22;16122;50.236;11.734;2023-02-11T15:06:22;15.70;51.50
29031;DHT22;16122;50.236;11.734;2023-02-11T15:09:01;15.70;51.60
29031;DHT22;16122;50.236;11.734;2023-02-11T15:11:31;15.60;51.50
29031;DHT22;16122;50.236;11.734;2023-02-11T15:14:06;15.60;51.50
29031;DHT22;16122;50.236;11.734;2023-02-11T15:16:33;15.60;51.60
29031;DHT22;16122;50.236;11.734;2023-02-11T15:19:02;15.60;51.50
29031;DHT22;16122;50.236;11.734;2023-02-11T15:21:32;15.60;51.50
29031;DHT22;16122;50.236;11.734;2023-02-11T15:24:05;15.60;51.50
29031;DHT22;16122;50.236;11.734;2023-02-11T15:26:31;15.60;51.50
29031;DHT22;16122;50.236;11.734;2023-02-11T15:28:58;15.60;51.50
29031;DHT22;16122;50.236;11.734;2023-02-11T15:31:26;15.60;51.50
29031;DHT22;16122;50.236;11.734;2023-02-11T15:33:52;15.60;51.40
29031;DHT22;16122;50.236;11.734;2023-02-11T15:36:22;15.60;51.40
29031;DHT22;16122;50.236;11.734;2023-02-11T15:39:16;15.60;51.50
29031;DHT22;16122;50.236;11.734;2023-02-11T15:41:42;15.60;51.50
29031;DHT22;16122;50.236;11.734;2023-02-11T15:44:26;15.60;51.50
29031;DHT22;16122;50.236;11.734;2023-02-11T15:46:53;15.60;51.50
29031;DHT22;16122;50.236;11.734;2023-02-11T15:49:19;15.60;51.50
29031;DHT22;16122;50.236;11.734;2023-02-11T15:51:46;15.60;51.50
29031;DHT22;16122;50.236;11.734;2023-02-11T15:54:16;15.60;51.50
29031;DHT22;16122;50.236;11.734;2023-02-11T15:56:45;15.60;51.50
29031;DHT22;16122;50.236;11.734;2023-02-11T15:59:26;15.60;51.50
29031;DHT22;16122;50.236;11.734;2023-02-11T16:01:56;15.60;51.50
29031;DHT22;16122;50.236;11.734;2023-02-11T16:04:25;15.60;51.50
29031;DHT22;16122;50.236;11.734;2023-02-11T16:06:52;15.60;51.50
29031;DHT22;16122;50.236;11.734;2023-02-11T16:14:31;15.60;51.50
29031;DHT22;16122;50.236;11.734;2023-02-11T16:19:47;15.60;51.50
29031;DHT22;16122;50.236;11.734;2023-02-11T16:22:22;15.60;51.30
29031;DHT22;16122;50.236;11.734;2023-02-11T16:24:51;15.60;51.40
29031;DHT22;16122;50.236;11.734;2023-02-11T16:29:47;15.60;51.50
29031;DHT22;16122;50.236;11.734;2023-02-11T16:32:20;15.60;51.60
29031;DHT22;16122;50.236;11.734;2023-02-11T16:34:46;15.60;51.80
29031;DHT22;16122;50.236;11.734;2023-02-11T16:37:12;15.60;51.90
29031;DHT22;16122;50.236;11.734;2023-02-11T16:39:37;15.60;52.10
29031;DHT22;16122;50.236;11.734;2023-02-11T16:42:04;15.60;52.00
29031;DHT22;16122;50.236;11.734;2023-02-11T16:44:32;15.60;52.00
29031;DHT22;16122;50.236;11.734;2023-02-11T16:46:59;15.60;52.10
29031;DHT22;16122;50.236;11.734;2023-02-11T16:49:36;15.60;52.10
29031;DHT22;16122;50.236;11.734;2023-02-11T16:52:07;15.60;52.10
29031;DHT22;16122;50.236;11.734;2023-02-11T16:54:33;15.60;52.00
29031;DHT22;16122;50.236;11.734;2023-02-11T16:56:59;15.60;52.00
29031;DHT22;16122;50.236;11.734;2023-02-11T16:59:25;15.60;52.10
29031;DHT22;16122;50.236;11.734;2023-02-11T17:01:52;15.60;52.20
29031;DHT22;16122;50.236;11.734;2023-02-11T17:04:22;15.60;52.40
29031;DHT22;16122;50.236;11.734;2023-02-11T17:06:48;15.60;52.60
29031;DHT22;16122;50.236;11.734;2023-02-11T17:09:17;15.60;52.70
29031;DHT22;16122;50.236;11.734;2023-02-11T17:11:44;15.60;52.90
29031;DHT22;16122;50.236;11.734;2023-02-11T17:14:10;15.60;53.00
29031;DHT22;16122;50.236;11.734;2023-02-11T17:16:36;15.50;53.00
29031;DHT22;16122;50.236;11.734;2023-02-11T17:19:01;15.60;53.10
29031;DHT22;16122;50.236;11.734;2023-02-11T17:21:27;15.60;53.00
29031;DHT22;16122;50.236;11.734;2023-02-11T17:23:59;15.60;53.00
29031;DHT22;16122;50.236;11.734;2023-02-11T17:26:25;15.60;53.00
29031;DHT22;16122;50.236;11.734;2023-02-11T17:28:50;15.60;52.90
29031;DHT22;16122;50.236;11.734;2023-02-11T17:31:16;15.60;52.90
29031;DHT22;16122;50.236;11.734;2023-02-11T17:33:42;15.60;52.80
29031;DHT22;16122;50.236;11.734;2023-02-11T17:36:09;15.60;52.70
29031;DHT22;16122;50.236;11.734;2023-02-11T17:38:36;15.60;52.70
29031;DHT22;16122;50.236;11.734;2023-02-11T17:41:03;15.60;52.70
29031;DHT22;16122;50.236;11.734;2023-02-11T17:43:30;15.60;52.50
29031;DHT22;16122;50.236;11.734;2023-02-11T17:45:57;15.60;52.50
29031;DHT22;16122;50.236;11.734;2023-02-11T17:48:23;15.60;52.40
29031;DHT22;16122;50.236;11.734;2023-02-11T17:50:49;15.60;52.40
29031;DHT22;16122;50.236;11.734;2023-02-11T17:53:15;15.60;52.30
29031;DHT22;16122;50.236;11.734;2023-02-11T17:55:41;15.60;52.30
29031;DHT22;16122;50.236;11.734;2023-02-11T17:58:06;15.60;52.20
29031;DHT22;16122;50.236;11.734;2023-02-11T18:00:32;15.60;52.10
29031;DHT22;16122;50.236;11.734;2023-02-11T18:02:58;15.60;52.10
29031;DHT22;16122;50.236;11.734;2023-02-11T18:05:34;15.60;52.40
29031;DHT22;16122;50.236;11.734;2023-02-11T18:08:01;15.60;52.60
29031;DHT22;16122;50.236;11.734;2023-02-11T18:10:27;15.60;53.00